createdAt,value
2022-10-13T00:00:51.116Z,15.03
2022-10-13T00:03:18.219Z,15.01
2022-10-13T00:05:47.789Z,15.07
2022-10-13T00:08:21.262Z,14.99
2022-10-13T00:10:50.405Z,15.04
2022-10-13T00:13:21.034Z,15.06
2022-10-13T00:15:48.808Z,15.11
2022-10-13T00:18:16.766Z,14.95
2022-10-13T00:20:52.427Z,14.87
2022-10-13T00:23:19.515Z,14.92
2022-10-13T00:25:48.772Z,14.84
2022-10-13T00:28:18.260Z,14.87
2022-10-13T00:30:46.273Z,14.79
2022-10-13T00:33:14.600Z,14.67
2022-10-13T00:35:43.623Z,14.66
2022-10-13T00:38:12.072Z,14.83
2022-10-13T00:40:56.089Z,14.79
2022-10-13T00:43:27.338Z,14.79
2022-10-13T00:45:54.620Z,14.89
2022-10-13T00:48:26.671Z,14.72
2022-10-13T00:50:54.038Z,15.05
2022-10-13T00:53:24.777Z,15.02
2022-10-13T00:55:52.989Z,15.20
2022-10-13T00:58:25.341Z,15.18
2022-10-13T01:00:53.607Z,15.24
2022-10-13T01:03:21.628Z,14.95
2022-10-13T01:05:49.516Z,14.72
2022-10-13T01:08:18.094Z,14.67
2022-10-13T01:10:51.704Z,14.45
2022-10-13T01:13:38.176Z,14.39
2022-10-13T01:16:10.832Z,14.42
2022-10-13T01:18:57.185Z,14.45
2022-10-13T01:21:52.560Z,14.41
2022-10-13T01:24:27.159Z,14.36
2022-10-13T01:27:24.708Z,14.38
2022-10-13T01:30:08.564Z,14.26
2022-10-13T01:32:49.220Z,14.22
2022-10-13T01:35:32.391Z,14.33
2022-10-13T01:38:24.149Z,14.39
2022-10-13T01:41:05.185Z,14.46
2022-10-13T01:43:57.994Z,14.33
2022-10-13T01:46:29.624Z,14.37
2022-10-13T01:49:00.241Z,14.52
2022-10-13T01:51:30.305Z,14.36
2022-10-13T01:53:57.705Z,14.40
2022-10-13T01:56:24.748Z,14.23
2022-10-13T01:58:54.083Z,14.16
2022-10-13T02:01:55.761Z,14.14
2022-10-13T02:05:03.192Z,14.08
2022-10-13T02:07:42.335Z,14.07
2022-10-13T02:10:23.042Z,14.00
2022-10-13T02:12:59.604Z,13.89
2022-10-13T02:15:35.152Z,13.84
2022-10-13T02:18:05.685Z,13.88
2022-10-13T02:20:33.792Z,13.85
2022-10-13T02:23:09.286Z,13.88
2022-10-13T02:25:37.061Z,14.03
2022-10-13T02:28:04.435Z,13.92
2022-10-13T02:30:36.096Z,13.87
2022-10-13T02:33:03.478Z,13.99
2022-10-13T02:35:31.164Z,14.12
2022-10-13T02:38:01.245Z,14.36
2022-10-13T02:40:28.401Z,14.39
2022-10-13T02:42:55.574Z,14.62
2022-10-13T02:45:22.683Z,14.70
2022-10-13T02:47:50.291Z,14.09
2022-10-13T02:50:17.322Z,14.05
2022-10-13T02:52:44.294Z,14.20
2022-10-13T02:55:11.172Z,13.79
2022-10-13T02:57:38.115Z,13.89
2022-10-13T03:00:07.320Z,13.94
2022-10-13T03:02:34.208Z,13.85
2022-10-13T03:05:01.233Z,14.04
2022-10-13T03:07:28.092Z,14.16
2022-10-13T03:09:54.939Z,14.49
2022-10-13T03:12:22.089Z,14.57
2022-10-13T03:14:49.317Z,14.24
2022-10-13T03:17:16.174Z,13.93
2022-10-13T03:19:43.071Z,13.69
2022-10-13T03:22:15.522Z,13.68
2022-10-13T03:24:43.055Z,14.13
2022-10-13T03:27:10.029Z,14.54
2022-10-13T03:29:36.994Z,14.43
2022-10-13T03:32:04.179Z,14.39
2022-10-13T03:34:31.190Z,13.92
2022-10-13T03:36:58.063Z,14.03
2022-10-13T03:39:25.038Z,14.23
2022-10-13T03:41:51.955Z,14.18
2022-10-13T03:44:18.864Z,14.33
2022-10-13T03:46:45.725Z,14.46
2022-10-13T03:49:12.939Z,14.72
2022-10-13T03:51:40.207Z,14.75
2022-10-13T03:54:07.198Z,14.89
2022-10-13T03:56:34.122Z,14.92
2022-10-13T03:59:02.145Z,14.52
2022-10-13T04:01:30.856Z,14.54
2022-10-13T04:03:59.232Z,14.82
2022-10-13T04:06:26.851Z,15.09
2022-10-13T04:08:54.648Z,14.95
2022-10-13T04:11:22.616Z,14.97
2022-10-13T04:13:57.424Z,15.12
2022-10-13T04:16:28.492Z,15.00
2022-10-13T04:19:03.318Z,14.57
2022-10-13T04:21:33.406Z,14.19
2022-10-13T04:24:01.310Z,13.96
2022-10-13T04:26:31.308Z,13.98
2022-10-13T04:28:59.538Z,13.69
2022-10-13T04:31:28.848Z,13.74
2022-10-13T04:33:55.844Z,13.83
2022-10-13T04:36:23.159Z,13.94
2022-10-13T04:38:51.275Z,14.16
2022-10-13T04:41:19.102Z,14.37
2022-10-13T04:43:53.376Z,15.33
2022-10-13T04:46:23.918Z,16.41
2022-10-13T04:48:51.664Z,17.53
2022-10-13T04:51:24.569Z,19.26
2022-10-13T04:53:56.349Z,20.34
2022-10-13T04:56:23.495Z,21.04
2022-10-13T04:58:50.470Z,21.81
2022-10-13T05:01:22.274Z,22.74
2022-10-13T05:03:54.588Z,23.26
2022-10-13T05:06:23.800Z,24.77
2022-10-13T05:08:56.149Z,25.96
2022-10-13T05:11:24.499Z,26.96
2022-10-13T05:13:51.447Z,26.59
2022-10-13T05:16:20.038Z,26.00
2022-10-13T05:18:47.497Z,24.93
2022-10-13T05:21:23.445Z,25.51
2022-10-13T05:23:54.371Z,26.96
2022-10-13T05:26:23.020Z,27.66
2022-10-13T05:28:50.192Z,28.65
2022-10-13T05:31:23.089Z,28.49
2022-10-13T05:33:51.840Z,28.40
2022-10-13T05:36:25.231Z,28.06
2022-10-13T05:38:54.737Z,27.62
2022-10-13T05:41:22.574Z,28.43
2022-10-13T05:43:51.537Z,29.83
2022-10-13T05:46:18.402Z,29.79
2022-10-13T05:48:45.330Z,29.36
2022-10-13T05:51:20.119Z,28.49
2022-10-13T05:53:57.537Z,29.32
2022-10-13T05:56:30.216Z,28.51
2022-10-13T05:59:02.899Z,28.09
2022-10-13T06:01:33.024Z,29.68
2022-10-13T06:04:04.978Z,31.33
2022-10-13T06:06:33.023Z,32.47
2022-10-13T06:09:01.328Z,31.08
2022-10-13T06:11:28.289Z,31.22
2022-10-13T06:13:55.131Z,30.74
2022-10-13T06:16:22.085Z,32.48
2022-10-13T06:18:49.205Z,32.03
2022-10-13T06:21:16.089Z,30.64
2022-10-13T06:23:42.992Z,31.98
2022-10-13T06:26:09.860Z,33.77
2022-10-13T06:28:37.573Z,35.27
2022-10-13T06:31:07.480Z,35.11
2022-10-13T06:33:34.804Z,33.61
2022-10-13T06:36:04.098Z,33.06
2022-10-13T06:38:31.584Z,33.23
2022-10-13T06:41:03.028Z,33.71
2022-10-13T06:43:38.894Z,32.49
2022-10-13T06:46:10.841Z,32.62
2022-10-13T06:48:38.201Z,33.83
2022-10-13T06:51:07.442Z,30.67
2022-10-13T06:53:34.899Z,29.82
2022-10-13T06:56:04.942Z,29.12
2022-10-13T06:58:31.938Z,29.78
2022-10-13T07:00:58.869Z,31.62
2022-10-13T07:03:26.194Z,28.52
2022-10-13T07:05:53.477Z,29.02
2022-10-13T07:08:21.604Z,30.61
2022-10-13T07:10:48.949Z,31.57
2022-10-13T07:13:15.918Z,30.59
2022-10-13T07:15:42.858Z,29.74
2022-10-13T07:18:09.697Z,28.64
2022-10-13T07:20:36.544Z,28.52
2022-10-13T07:23:04.147Z,26.54
2022-10-13T07:25:32.147Z,25.96
2022-10-13T07:28:00.121Z,26.55
2022-10-13T07:30:27.637Z,27.09
2022-10-13T07:32:54.623Z,28.76
2022-10-13T07:35:25.812Z,30.81
2022-10-13T07:37:56.456Z,32.84
2022-10-13T07:40:23.839Z,31.61
2022-10-13T07:42:50.982Z,29.05
2022-10-13T07:45:18.180Z,28.74
2022-10-13T07:47:45.079Z,28.83
2022-10-13T07:50:12.026Z,28.85
2022-10-13T07:52:39.054Z,28.43
2022-10-13T07:55:06.834Z,28.02
2022-10-13T07:57:33.929Z,27.76
2022-10-13T08:00:01.121Z,28.10
2022-10-13T08:02:28.144Z,27.88
2022-10-13T08:04:54.985Z,26.06
2022-10-13T08:07:22.829Z,25.46
2022-10-13T08:09:50.027Z,25.24
2022-10-13T08:12:17.115Z,25.38
2022-10-13T08:14:44.581Z,25.96
2022-10-13T08:17:13.090Z,24.64
2022-10-13T08:19:39.969Z,23.70
2022-10-13T08:22:09.730Z,24.51
2022-10-13T08:24:37.303Z,24.53
2022-10-13T08:27:04.283Z,24.70
2022-10-13T08:29:33.873Z,24.86
2022-10-13T08:32:00.929Z,26.06
2022-10-13T08:34:27.956Z,26.96
2022-10-13T08:36:56.569Z,25.87
2022-10-13T08:39:25.157Z,24.19
2022-10-13T08:41:53.256Z,24.07
2022-10-13T08:47:36.196Z,25.09
2022-10-13T08:50:12.734Z,26.43
2022-10-13T08:52:47.339Z,28.37
2022-10-13T08:55:44.794Z,25.55
2022-10-13T08:58:33.031Z,23.85
2022-10-13T09:01:09.228Z,23.72
2022-10-13T09:03:48.634Z,24.34
2022-10-13T09:06:31.942Z,23.94
2022-10-13T09:09:04.696Z,23.85
2022-10-13T09:11:42.286Z,23.43
2022-10-13T09:14:12.639Z,24.21
2022-10-13T09:16:44.474Z,22.97
2022-10-13T09:19:27.864Z,22.93
2022-10-13T09:21:58.029Z,22.43
2022-10-13T09:24:27.063Z,22.47
2022-10-13T09:27:17.261Z,21.83
2022-10-13T09:29:45.303Z,22.74
2022-10-13T09:32:20.832Z,21.54
2022-10-13T09:34:48.527Z,20.83
2022-10-13T09:37:24.529Z,20.33
2022-10-13T09:40:13.075Z,20.31
2022-10-13T09:42:40.988Z,20.04
2022-10-13T09:45:17.141Z,20.45
2022-10-13T09:48:00.806Z,20.34
2022-10-13T09:50:30.145Z,20.86
2022-10-13T09:53:45.034Z,21.11
2022-10-13T09:56:23.676Z,20.51
2022-10-13T09:58:59.876Z,20.37
2022-10-13T10:01:34.710Z,20.26
2022-10-13T10:04:06.812Z,20.42
2022-10-13T10:06:35.060Z,20.61
2022-10-13T10:09:19.838Z,20.51
2022-10-13T10:11:50.220Z,21.16
2022-10-13T10:14:26.446Z,20.73
2022-10-13T10:17:02.510Z,20.97
2022-10-13T10:19:48.034Z,21.32
2022-10-13T10:22:52.430Z,20.60
2022-10-13T10:25:30.007Z,20.83
2022-10-13T10:28:29.597Z,20.57
2022-10-13T10:31:29.223Z,20.45
2022-10-13T10:34:28.705Z,20.56
2022-10-13T10:37:01.632Z,20.48
2022-10-13T10:39:38.871Z,20.24
2022-10-13T10:42:41.786Z,20.87
2022-10-13T10:45:17.369Z,20.75
2022-10-13T10:47:48.000Z,20.37
2022-10-13T10:50:17.311Z,20.81
2022-10-13T10:53:11.918Z,20.50
2022-10-13T10:55:53.621Z,21.02
2022-10-13T10:58:53.937Z,20.85
2022-10-13T11:01:24.397Z,20.71
2022-10-13T11:03:57.489Z,20.79
2022-10-13T11:06:36.468Z,21.31
2022-10-13T11:09:05.998Z,20.62
2022-10-13T11:11:37.670Z,20.44
2022-10-13T11:14:09.894Z,20.29
2022-10-13T11:16:41.532Z,20.61
2022-10-13T11:19:29.774Z,20.62
2022-10-13T11:21:59.428Z,20.83
2022-10-13T11:24:41.487Z,20.86
2022-10-13T11:27:16.723Z,20.32
2022-10-13T11:29:49.246Z,20.25
2022-10-13T11:32:30.549Z,20.42
2022-10-13T11:34:59.619Z,21.07
2022-10-13T11:37:32.285Z,21.32
2022-10-13T11:40:44.742Z,21.32
2022-10-13T11:43:14.489Z,21.31
2022-10-13T11:45:52.972Z,21.13
2022-10-13T11:48:42.306Z,20.76
2022-10-13T11:51:42.764Z,20.73
2022-10-13T11:54:21.901Z,20.71
2022-10-13T11:56:57.483Z,20.24
2022-10-13T11:59:37.691Z,20.54
2022-10-13T12:02:19.321Z,20.99
2022-10-13T12:05:01.329Z,21.25
2022-10-13T12:07:34.622Z,21.75
2022-10-13T12:10:05.822Z,21.40
2022-10-13T12:12:33.055Z,21.86
2022-10-13T12:15:02.740Z,21.25
2022-10-13T12:17:39.136Z,21.24
2022-10-13T12:20:24.521Z,21.91
2022-10-13T12:22:53.719Z,21.25
2022-10-13T12:25:26.851Z,21.11
2022-10-13T12:28:00.636Z,21.54
2022-10-13T12:30:37.293Z,20.98
2022-10-13T12:33:17.841Z,20.83
2022-10-13T12:35:44.759Z,21.12
2022-10-13T12:38:19.888Z,21.23
2022-10-13T12:40:53.652Z,21.03
2022-10-13T12:43:25.664Z,20.80
2022-10-13T12:45:52.964Z,20.80
2022-10-13T12:48:34.612Z,20.65
2022-10-13T12:51:28.216Z,20.63
2022-10-13T12:53:55.311Z,20.30
2022-10-13T12:56:29.664Z,19.74
2022-10-13T12:58:57.938Z,20.36
2022-10-13T13:01:31.057Z,20.65
2022-10-13T13:04:22.773Z,19.96
2022-10-13T13:07:30.329Z,19.60
2022-10-13T13:10:07.254Z,19.66
2022-10-13T13:12:35.663Z,20.08
2022-10-13T13:15:36.667Z,20.34
2022-10-13T13:18:24.637Z,20.79
2022-10-13T13:20:51.653Z,20.55
2022-10-13T13:23:19.510Z,20.92
2022-10-13T13:26:06.430Z,20.13
2022-10-13T13:28:33.781Z,19.57
2022-10-13T13:31:03.437Z,19.29
2022-10-13T13:33:30.524Z,19.44
2022-10-13T13:35:58.895Z,19.64
2022-10-13T13:38:25.895Z,19.47
2022-10-13T13:40:52.726Z,19.49
2022-10-13T13:43:19.559Z,19.52
2022-10-13T13:45:46.632Z,19.10
2022-10-13T13:48:14.446Z,19.48
2022-10-13T13:50:41.380Z,19.70
2022-10-13T13:53:08.298Z,20.28
2022-10-13T13:55:36.049Z,20.27
2022-10-13T13:58:05.348Z,20.49
2022-10-13T14:00:32.265Z,20.01
2022-10-13T14:02:59.264Z,20.47
2022-10-13T14:05:26.193Z,20.57
2022-10-13T14:07:55.195Z,20.04
2022-10-13T14:10:22.325Z,21.10
2022-10-13T14:12:49.225Z,20.75
2022-10-13T14:15:16.230Z,19.84
2022-10-13T14:17:43.191Z,19.53
2022-10-13T14:20:10.772Z,20.22
2022-10-13T14:22:39.294Z,20.56
2022-10-13T14:25:07.758Z,19.95
2022-10-13T14:27:35.369Z,20.28
2022-10-13T14:30:02.527Z,20.62
2022-10-13T14:32:29.576Z,19.71
2022-10-13T14:34:56.506Z,19.14
2022-10-13T14:37:25.079Z,19.24
2022-10-13T14:39:54.802Z,19.89
2022-10-13T14:42:21.757Z,19.86
2022-10-13T14:44:48.726Z,19.49
2022-10-13T14:47:15.616Z,19.13
2022-10-13T14:49:42.524Z,19.19
2022-10-13T14:52:10.016Z,19.84
2022-10-13T14:54:40.076Z,20.01
2022-10-13T14:57:15.645Z,19.61
2022-10-13T14:59:43.166Z,19.49
2022-10-13T15:02:14.067Z,19.14
2022-10-13T15:04:51.474Z,19.12
2022-10-13T15:07:18.866Z,18.25
2022-10-13T15:09:52.714Z,17.69
2022-10-13T15:12:28.206Z,18.04
2022-10-13T15:14:55.164Z,18.21
2022-10-13T15:17:22.124Z,18.27
2022-10-13T15:19:49.109Z,17.94
2022-10-13T15:22:16.033Z,17.61
2022-10-13T15:24:43.579Z,17.29
2022-10-13T15:27:10.481Z,17.50
2022-10-13T15:29:37.496Z,17.55
2022-10-13T15:32:13.643Z,18.01
2022-10-13T15:34:41.715Z,17.88
2022-10-13T15:37:08.606Z,17.52
2022-10-13T15:39:35.773Z,17.63
2022-10-13T15:42:03.285Z,17.37
2022-10-13T15:44:50.940Z,17.47
2022-10-13T15:47:18.387Z,17.70
2022-10-13T15:49:45.233Z,17.98
2022-10-13T15:52:12.592Z,18.17
2022-10-13T15:54:39.564Z,18.08
2022-10-13T15:57:06.457Z,18.04
2022-10-13T15:59:33.367Z,17.73
2022-10-13T16:02:00.244Z,17.39
2022-10-13T16:04:27.071Z,17.30
2022-10-13T16:06:54.031Z,17.34
2022-10-13T16:09:20.967Z,17.61
2022-10-13T16:11:48.086Z,17.79
2022-10-13T16:14:15.103Z,18.04
2022-10-13T16:16:41.934Z,18.14
2022-10-13T16:19:09.014Z,18.04
2022-10-13T16:21:36.174Z,17.67
2022-10-13T16:24:05.151Z,17.85
2022-10-13T16:26:32.055Z,17.82
2022-10-13T16:28:59.001Z,17.84
2022-10-13T16:31:26.210Z,18.01
2022-10-13T16:33:53.084Z,17.73
2022-10-13T16:36:20.565Z,17.51
2022-10-13T16:38:53.086Z,17.17
2022-10-13T16:41:20.103Z,17.14
2022-10-13T16:43:48.403Z,17.31
2022-10-13T16:46:17.793Z,17.22
2022-10-13T16:48:46.068Z,16.90
2022-10-13T16:51:15.635Z,16.94
2022-10-13T16:53:42.659Z,16.79
2022-10-13T16:56:10.092Z,16.76
2022-10-13T16:58:37.017Z,16.74
2022-10-13T17:01:09.296Z,16.61
2022-10-13T17:03:39.599Z,16.57
2022-10-13T17:06:07.114Z,16.49
2022-10-13T17:08:34.904Z,16.27
2022-10-13T17:11:03.516Z,16.33
2022-10-13T17:13:31.733Z,16.30
2022-10-13T17:15:59.628Z,16.22
2022-10-13T17:18:28.263Z,16.34
2022-10-13T17:21:00.970Z,16.37
2022-10-13T17:23:29.394Z,16.15
2022-10-13T17:26:00.618Z,16.33
2022-10-13T17:28:27.733Z,16.40
2022-10-13T17:31:09.799Z,16.21
2022-10-13T17:33:37.839Z,16.11
2022-10-13T17:36:27.011Z,16.25
2022-10-13T17:38:56.031Z,16.15
2022-10-13T17:41:24.042Z,16.04
2022-10-13T17:43:52.438Z,15.99
2022-10-13T17:46:40.596Z,16.09
2022-10-13T17:49:10.054Z,16.35
2022-10-13T17:51:37.084Z,16.20
2022-10-13T17:54:04.300Z,16.30
2022-10-13T17:56:31.789Z,16.08
2022-10-13T17:59:00.403Z,15.78
2022-10-13T18:01:33.653Z,15.86
2022-10-13T18:04:08.536Z,15.89
2022-10-13T18:06:40.013Z,15.84
2022-10-13T18:09:13.001Z,15.84
2022-10-13T18:11:45.538Z,15.85
2022-10-13T18:14:15.681Z,16.19
2022-10-13T18:16:44.976Z,16.03
2022-10-13T18:19:13.632Z,15.96
2022-10-13T18:21:40.542Z,16.13
2022-10-13T18:24:09.495Z,16.06
2022-10-13T18:26:36.397Z,15.87
2022-10-13T18:29:05.863Z,15.79
2022-10-13T18:31:35.730Z,15.85
2022-10-13T18:34:08.030Z,15.91
2022-10-13T18:36:37.994Z,15.98
2022-10-13T18:39:16.781Z,15.92
2022-10-13T18:41:47.224Z,15.96
2022-10-13T18:44:14.889Z,16.14
2022-10-13T18:46:42.611Z,16.47
2022-10-13T18:49:12.855Z,16.57
2022-10-13T18:51:42.121Z,16.49
2022-10-13T18:54:09.100Z,16.67
2022-10-13T18:56:37.067Z,16.64
2022-10-13T18:59:06.287Z,16.70
2022-10-13T19:01:35.864Z,16.61
2022-10-13T19:04:03.979Z,16.48
2022-10-13T19:06:32.391Z,16.39
2022-10-13T19:09:01.853Z,16.18
2022-10-13T19:11:29.684Z,15.75
2022-10-13T19:13:57.699Z,15.21
2022-10-13T19:16:25.927Z,15.59
2022-10-13T19:18:52.856Z,15.49
2022-10-13T19:21:21.900Z,15.72
2022-10-13T19:23:49.740Z,16.00
2022-10-13T19:26:24.004Z,15.60
2022-10-13T19:28:59.827Z,15.62
2022-10-13T19:31:29.275Z,15.62
2022-10-13T19:33:56.829Z,15.27
2022-10-13T19:36:33.212Z,15.32
2022-10-13T19:39:06.795Z,15.81
2022-10-13T19:41:34.756Z,16.04
2022-10-13T19:44:02.869Z,16.00
2022-10-13T19:46:39.886Z,15.98
2022-10-13T19:49:07.108Z,15.87
2022-10-13T19:51:36.547Z,15.73
2022-10-13T19:54:04.519Z,15.52
2022-10-13T19:56:31.862Z,15.45
2022-10-13T19:58:59.595Z,15.28
2022-10-13T20:01:27.216Z,15.40
2022-10-13T20:03:54.791Z,15.53
2022-10-13T20:06:22.191Z,15.59
2022-10-13T20:08:49.380Z,15.64
2022-10-13T20:11:23.854Z,15.72
2022-10-13T20:13:52.527Z,15.96
2022-10-13T20:16:24.214Z,15.67
2022-10-13T20:18:53.933Z,15.55
2022-10-13T20:21:21.653Z,15.91
2022-10-13T20:23:49.168Z,16.07
2022-10-13T20:26:16.848Z,16.24
2022-10-13T20:28:45.506Z,15.39
2022-10-13T20:31:14.453Z,14.63
2022-10-13T20:33:41.494Z,14.29
2022-10-13T20:36:14.264Z,14.15
2022-10-13T20:38:41.346Z,14.11
2022-10-13T20:41:14.444Z,14.25
2022-10-13T20:43:41.339Z,14.45
2022-10-13T20:46:09.354Z,14.45
2022-10-13T20:49:05.025Z,14.64
2022-10-13T20:51:26.162Z,14.63
2022-10-13T20:53:53.174Z,14.72
2022-10-13T20:56:22.953Z,14.95
2022-10-13T20:58:50.972Z,15.02
2022-10-13T21:01:20.794Z,14.72
2022-10-13T21:03:54.825Z,14.84
2022-10-13T21:06:23.837Z,15.09
2022-10-13T21:08:51.456Z,14.97
2022-10-13T21:11:21.106Z,14.84
2022-10-13T21:13:49.066Z,15.02
2022-10-13T21:16:22.252Z,15.30
2022-10-13T21:18:51.047Z,15.48
2022-10-13T21:21:23.619Z,15.34
2022-10-13T21:23:55.304Z,15.18
2022-10-13T21:26:23.945Z,15.09
2022-10-13T21:28:51.832Z,15.05
2022-10-13T21:31:21.058Z,15.07
2022-10-13T21:33:48.554Z,14.65
2022-10-13T21:36:24.787Z,14.31
2022-10-13T21:38:55.004Z,14.39
2022-10-13T21:41:22.931Z,14.45
2022-10-13T21:43:51.677Z,14.37
2022-10-13T21:46:20.538Z,14.68
2022-10-13T21:48:58.724Z,14.81
2022-10-13T21:51:34.644Z,15.02
2022-10-13T21:54:07.897Z,14.95
2022-10-13T21:56:34.995Z,14.51
2022-10-13T21:59:03.686Z,14.38
2022-10-13T22:01:31.208Z,14.56
2022-10-13T22:04:00.855Z,14.32
2022-10-13T22:06:29.036Z,14.41
2022-10-13T22:08:57.780Z,14.35
2022-10-13T22:11:28.133Z,14.27
2022-10-13T22:13:57.120Z,14.39
2022-10-13T22:16:26.805Z,14.40
2022-10-13T22:18:55.634Z,14.46
2022-10-13T22:21:28.362Z,14.22
2022-10-13T22:24:00.889Z,14.20
2022-10-13T22:26:29.824Z,14.31
2022-10-13T22:28:58.397Z,14.37
2022-10-13T22:31:25.486Z,14.35
2022-10-13T22:33:53.849Z,14.37
2022-10-13T22:36:23.207Z,14.43
2022-10-13T22:38:51.706Z,14.31
2022-10-13T22:41:19.643Z,14.14
2022-10-13T22:43:51.202Z,14.35
2022-10-13T22:46:20.027Z,14.40
2022-10-13T22:48:47.289Z,14.03
2022-10-13T22:51:17.902Z,13.92
2022-10-13T22:53:44.967Z,13.94
2022-10-13T22:56:14.846Z,14.24
2022-10-13T22:58:41.939Z,14.25
2022-10-13T23:01:14.595Z,13.80
2022-10-13T23:03:42.715Z,13.55
2022-10-13T23:06:14.240Z,13.67
2022-10-13T23:08:41.623Z,13.74
2022-10-13T23:11:08.631Z,13.49
2022-10-13T23:13:35.551Z,13.49
2022-10-13T23:16:07.817Z,13.81
2022-10-13T23:18:38.485Z,13.77
2022-10-13T23:21:11.900Z,13.76
2022-10-13T23:23:39.385Z,13.70
2022-10-13T23:26:19.493Z,13.64
2022-10-13T23:28:46.393Z,13.61
2022-10-13T23:31:15.881Z,13.65
2022-10-13T23:33:43.819Z,13.63
2022-10-13T23:36:16.082Z,13.24
2022-10-13T23:38:45.074Z,13.27
2022-10-13T23:41:14.941Z,13.31
2022-10-13T23:43:42.555Z,13.11
2022-10-13T23:46:10.877Z,13.24
2022-10-13T23:48:38.732Z,13.69
2022-10-13T23:51:10.778Z,13.92
2022-10-13T23:53:38.730Z,13.73
2022-10-13T23:56:07.393Z,13.79
2022-10-13T23:58:39.219Z,13.71
